sensor_id;sensor_type;location;lat;lon;timestamp;pressure;altitude;pressure_sealevel;temperature;humidity
5872;BME280;2962;51.312;7.378;2023-05-23T00:01:53;97550.25;;;13.11;100.00
5872;BME280;2962;51.312;7.378;2023-05-23T00:04:19;97550.16;;;12.97;100.00
5872;BME280;2962;51.312;7.378;2023-05-23T00:06:45;97542.75;;;13.01;100.00
5872;BME280;2962;51.312;7.378;2023-05-23T00:09:11;97548.25;;;13.04;100.00
5872;BME280;2962;51.312;7.378;2023-05-23T00:11:36;97538.88;;;13.05;100.00
5872;BME280;2962;51.312;7.378;2023-05-23T00:14:02;97534.97;;;13.10;100.00
5872;BME280;2962;51.312;7.378;2023-05-23T00:16:27;97539.63;;;13.02;100.00
5872;BME280;2962;51.312;7.378;2023-05-23T00:18:52;97545.09;;;13.02;100.00
5872;BME280;2962;51.312;7.378;2023-05-23T00:21:17;97542.78;;;13.04;100.00
5872;BME280;2962;51.312;7.378;2023-05-23T00:23:43;97547.41;;;12.93;100.00
5872;BME280;2962;51.312;7.378;2023-05-23T00:26:09;97541.13;;;12.89;100.00
5872;BME280;2962;51.312;7.378;2023-05-23T00:28:35;97548.19;;;12.93;100.00
5872;BME280;2962;51.312;7.378;2023-05-23T00:31:00;97549.69;;;12.87;100.00
5872;BME280;2962;51.312;7.378;2023-05-23T00:33:26;97544.94;;;12.77;100.00
5872;BME280;2962;51.312;7.378;2023-05-23T00:35:51;97543.06;;;12.85;100.00
5872;BME280;2962;51.312;7.378;2023-05-23T00:38:17;97548.88;;;12.83;100.00
5872;BME280;2962;51.312;7.378;2023-05-23T00:40:43;97558.25;;;12.82;100.00
5872;BME280;2962;51.312;7.378;2023-05-23T00:43:08;97560.19;;;12.78;100.00
5872;BME280;2962;51.312;7.378;2023-05-23T00:45:34;97561.72;;;12.76;100.00
5872;BME280;2962;51.312;7.378;2023-05-23T00:48:00;97556.25;;;12.76;100.00
5872;BME280;2962;51.312;7.378;2023-05-23T00:50:27;97550.41;;;12.74;100.00
5872;BME280;2962;51.312;7.378;2023-05-23T00:52:54;97565.25;;;12.76;100.00
5872;BME280;2962;51.312;7.378;2023-05-23T00:55:20;97566.00;;;12.69;100.00
5872;BME280;2962;51.312;7.378;2023-05-23T00:57:46;97565.16;;;12.62;100.00
5872;BME280;2962;51.312;7.378;2023-05-23T01:00:12;97567.78;;;12.51;100.00
5872;BME280;2962;51.312;7.378;2023-05-23T01:02:40;97576.59;;;12.30;100.00
5872;BME280;2962;51.312;7.378;2023-05-23T01:05:09;97563.09;;;12.07;100.00
5872;BME280;2962;51.312;7.378;2023-05-23T01:07:35;97569.22;;;11.97;100.00
5872;BME280;2962;51.312;7.378;2023-05-23T01:10:01;97571.91;;;11.93;100.00
5872;BME280;2962;51.312;7.378;2023-05-23T01:15:06;97586.44;;;12.01;100.00
5872;BME280;2962;51.312;7.378;2023-05-23T01:17:54;97574.78;;;12.04;100.00
5872;BME280;2962;51.312;7.378;2023-05-23T01:20:29;97574.31;;;11.98;100.00
5872;BME280;2962;51.312;7.378;2023-05-23T01:23:01;97579.41;;;12.00;100.00
5872;BME280;2962;51.312;7.378;2023-05-23T01:25:47;97578.63;;;12.00;100.00
5872;BME280;2962;51.312;7.378;2023-05-23T01:28:27;97569.22;;;11.97;100.00
5872;BME280;2962;51.312;7.378;2023-05-23T01:30:56;97572.03;;;12.04;100.00
5872;BME280;2962;51.312;7.378;2023-05-23T01:33:23;97564.44;;;11.87;100.00
5872;BME280;2962;51.312;7.378;2023-05-23T01:35:49;97571.53;;;11.95;100.00
5872;BME280;2962;51.312;7.378;2023-05-23T01:38:15;97564.38;;;11.83;100.00
5872;BME280;2962;51.312;7.378;2023-05-23T01:40:40;97566.31;;;11.83;100.00
5872;BME280;2962;51.312;7.378;2023-05-23T01:43:06;97570.63;;;11.84;100.00
5872;BME280;2962;51.312;7.378;2023-05-23T01:45:31;97563.19;;;11.81;100.00
5872;BME280;2962;51.312;7.378;2023-05-23T01:47:57;97573.00;;;11.85;100.00
5872;BME280;2962;51.312;7.378;2023-05-23T01:50:23;97562.09;;;11.85;100.00
5872;BME280;2962;51.312;7.378;2023-05-23T01:52:49;97562.47;;;11.87;100.00
5872;BME280;2962;51.312;7.378;2023-05-23T01:55:16;97566.41;;;11.90;100.00
5872;BME280;2962;51.312;7.378;2023-05-23T01:57:49;97562.16;;;11.92;100.00
5872;BME280;2962;51.312;7.378;2023-05-23T02:00:15;97575.03;;;11.92;100.00
5872;BME280;2962;51.312;7.378;2023-05-23T02:02:41;97568.44;;;11.96;100.00
5872;BME280;2962;51.312;7.378;2023-05-23T02:05:06;97578.66;;;12.03;100.00
5872;BME280;2962;51.312;7.378;2023-05-23T02:07:33;97581.41;;;12.03;100.00
5872;BME280;2962;51.312;7.378;2023-05-23T02:09:58;97576.25;;;11.98;100.00
5872;BME280;2962;51.312;7.378;2023-05-23T02:12:23;97578.28;;;12.05;100.00
5872;BME280;2962;51.312;7.378;2023-05-23T02:14:49;97583.00;;;12.08;100.00
5872;BME280;2962;51.312;7.378;2023-05-23T02:17:16;97577.56;;;12.11;100.00
5872;BME280;2962;51.312;7.378;2023-05-23T02:19:42;97579.53;;;12.14;100.00
5872;BME280;2962;51.312;7.378;2023-05-23T02:22:07;97578.75;;;12.14;100.00
5872;BME280;2962;51.312;7.378;2023-05-23T02:24:32;97582.25;;;12.11;100.00
5872;BME280;2962;51.312;7.378;2023-05-23T02:26:58;97584.59;;;12.12;100.00
5872;BME280;2962;51.312;7.378;2023-05-23T02:29:23;97586.16;;;12.13;100.00
5872;BME280;2962;51.312;7.378;2023-05-23T02:31:48;97585.84;;;12.18;100.00
5872;BME280;2962;51.312;7.378;2023-05-23T02:34:13;97579.53;;;12.14;100.00
5872;BME280;2962;51.312;7.378;2023-05-23T02:36:39;97592.06;;;12.15;100.00
5872;BME280;2962;51.312;7.378;2023-05-23T02:39:04;97590.44;;;12.11;100.00
5872;BME280;2962;51.312;7.378;2023-05-23T02:41:30;97592.72;;;12.05;100.00
5872;BME280;2962;51.312;7.378;2023-05-23T02:43:55;97595.06;;;12.03;100.00
5872;BME280;2962;51.312;7.378;2023-05-23T02:46:20;97590.38;;;12.04;100.00
5872;BME280;2962;51.312;7.378;2023-05-23T02:48:46;97587.22;;;12.02;100.00
5872;BME280;2962;51.312;7.378;2023-05-23T02:51:11;97584.78;;;11.93;100.00
5872;BME280;2962;51.312;7.378;2023-05-23T02:53:37;97596.22;;;12.06;100.00
5872;BME280;2962;51.312;7.378;2023-05-23T02:56:03;97598.56;;;12.04;100.00
5872;BME280;2962;51.312;7.378;2023-05-23T02:58:28;97597.44;;;12.08;100.00
5872;BME280;2962;51.312;7.378;2023-05-23T03:00:54;97598.34;;;12.19;100.00
5872;BME280;2962;51.312;7.378;2023-05-23T03:03:19;97594.75;;;12.12;100.00
5872;BME280;2962;51.312;7.378;2023-05-23T03:05:45;97590.44;;;12.11;100.00
5872;BME280;2962;51.312;7.378;2023-05-23T03:08:10;97592.75;;;12.09;100.00
5872;BME280;2962;51.312;7.378;2023-05-23T03:10:36;97585.78;;;12.11;100.00
5872;BME280;2962;51.312;7.378;2023-05-23T03:13:01;97593.09;;;12.04;100.00
5872;BME280;2962;51.312;7.378;2023-05-23T03:15:27;97593.09;;;12.04;100.00
5872;BME280;2962;51.312;7.378;2023-05-23T03:17:52;97590.28;;;11.96;100.00
5872;BME280;2962;51.312;7.378;2023-05-23T03:20:17;97590.25;;;11.93;100.00
5872;BME280;2962;51.312;7.378;2023-05-23T03:22:42;97596.06;;;11.88;100.00
5872;BME280;2962;51.312;7.378;2023-05-23T03:25:09;97592.44;;;11.80;100.00
5872;BME280;2962;51.312;7.378;2023-05-23T03:27:35;97596.41;;;11.86;100.00
5872;BME280;2962;51.312;7.378;2023-05-23T03:30:02;97595.50;;;11.79;100.00
5872;BME280;2962;51.312;7.378;2023-05-23T03:32:28;97604.19;;;11.84;100.00
5872;BME280;2962;51.312;7.378;2023-05-23T03:34:53;97607.25;;;11.83;100.00
5872;BME280;2962;51.312;7.378;2023-05-23T03:37:18;97605.25;;;11.76;100.00
5872;BME280;2962;51.312;7.378;2023-05-23T03:39:43;97608.34;;;11.74;100.00
5872;BME280;2962;51.312;7.378;2023-05-23T03:42:09;97604.38;;;11.68;100.00
5872;BME280;2962;51.312;7.378;2023-05-23T03:44:34;97612.56;;;11.68;100.00
5872;BME280;2962;51.312;7.378;2023-05-23T03:46:59;97607.47;;;11.67;100.00
5872;BME280;2962;51.312;7.378;2023-05-23T03:49:25;97606.19;;;11.57;100.00
5872;BME280;2962;51.312;7.378;2023-05-23T03:51:50;97618.66;;;11.58;100.00
5872;BME280;2962;51.312;7.378;2023-05-23T03:54:16;97613.56;;;11.57;100.00
5872;BME280;2962;51.312;7.378;2023-05-23T03:56:42;97626.03;;;11.54;100.00
5872;BME280;2962;51.312;7.378;2023-05-23T03:59:08;97628.81;;;11.58;100.00
5872;BME280;2962;51.312;7.378;2023-05-23T04:01:33;97629.94;;;11.57;100.00
5872;BME280;2962;51.312;7.378;2023-05-23T04:03:58;97628.38;;;11.56;100.00
5872;BME280;2962;51.312;7.378;2023-05-23T04:06:24;97632.31;;;11.58;100.00
5872;BME280;2962;51.312;7.378;2023-05-23T04:08:50;97640.06;;;11.56;100.00
5872;BME280;2962;51.312;7.378;2023-05-23T04:11:15;97621.63;;;11.46;100.00
5872;BME280;2962;51.312;7.378;2023-05-23T04:13:40;97637.72;;;11.55;100.00
5872;BME280;2962;51.312;7.378;2023-05-23T04:16:06;97639.63;;;11.51;100.00
5872;BME280;2962;51.312;7.378;2023-05-23T04:18:32;97648.16;;;11.49;100.00
5872;BME280;2962;51.312;7.378;2023-05-23T04:20:58;97647.03;;;11.50;100.00
5872;BME280;2962;51.312;7.378;2023-05-23T04:23:23;97645.75;;;11.44;100.00
5872;BME280;2962;51.312;7.378;2023-05-23T04:25:48;97645.03;;;11.47;100.00
5872;BME280;2962;51.312;7.378;2023-05-23T04:28:15;97654.72;;;11.44;100.00
5872;BME280;2962;51.312;7.378;2023-05-23T04:30:42;97660.19;;;11.44;100.00
5872;BME280;2962;51.312;7.378;2023-05-23T04:33:07;97646.75;;;11.32;100.00
5872;BME280;2962;51.312;7.378;2023-05-23T04:35:34;97642.88;;;11.33;100.00
5872;BME280;2962;51.312;7.378;2023-05-23T04:38:03;97650.84;;;11.45;100.00
5872;BME280;2962;51.312;7.378;2023-05-23T04:40:28;97643.75;;;11.41;100.00
5872;BME280;2962;51.312;7.378;2023-05-23T04:42:54;97664.00;;;11.40;100.00
5872;BME280;2962;51.312;7.378;2023-05-23T04:45:20;97651.09;;;11.37;100.00
5872;BME280;2962;51.312;7.378;2023-05-23T04:47:46;97650.44;;;11.43;100.00
5872;BME280;2962;51.312;7.378;2023-05-23T04:50:12;97660.00;;;11.34;100.00
5872;BME280;2962;51.312;7.378;2023-05-23T04:52:39;97652.31;;;11.39;100.00
5872;BME280;2962;51.312;7.378;2023-05-23T04:55:05;97655.88;;;11.43;100.00
5872;BME280;2962;51.312;7.378;2023-05-23T04:57:30;97657.66;;;11.32;100.00
5872;BME280;2962;51.312;7.378;2023-05-23T04:59:56;97669.38;;;11.33;100.00
5872;BME280;2962;51.312;7.378;2023-05-23T05:02:21;97660.72;;;11.27;100.00
5872;BME280;2962;51.312;7.378;2023-05-23T05:04:47;97654.44;;;11.23;100.00
5872;BME280;2962;51.312;7.378;2023-05-23T05:07:12;97661.13;;;11.29;100.00
5872;BME280;2962;51.312;7.378;2023-05-23T05:09:37;97665.78;;;11.29;100.00
5872;BME280;2962;51.312;7.378;2023-05-23T05:12:03;97659.88;;;11.23;100.00
5872;BME280;2962;51.312;7.378;2023-05-23T05:14:28;97661.41;;;11.20;100.00
5872;BME280;2962;51.312;7.378;2023-05-23T05:16:53;97672.72;;;11.22;100.00
5872;BME280;2962;51.312;7.378;2023-05-23T05:19:19;97669.25;;;11.25;100.00
5872;BME280;2962;51.312;7.378;2023-05-23T05:21:45;97670.16;;;11.33;100.00
5872;BME280;2962;51.312;7.378;2023-05-23T05:24:10;97666.63;;;11.33;100.00
5872;BME280;2962;51.312;7.378;2023-05-23T05:26:37;97678.81;;;11.39;100.00
5872;BME280;2962;51.312;7.378;2023-05-23T05:29:02;97677.50;;;11.29;100.00
5872;BME280;2962;51.312;7.378;2023-05-23T05:31:28;97678.31;;;11.33;100.00
5872;BME280;2962;51.312;7.378;2023-05-23T05:33:53;97671.97;;;11.25;100.00
5872;BME280;2962;51.312;7.378;2023-05-23T05:36:19;97682.28;;;11.36;100.00
5872;BME280;2962;51.312;7.378;2023-05-23T05:38:45;97693.19;;;11.36;100.00
5872;BME280;2962;51.312;7.378;2023-05-23T05:41:10;97687.66;;;11.32;100.00
5872;BME280;2962;51.312;7.378;2023-05-23T05:43:36;97693.28;;;11.43;100.00
5872;BME280;2962;51.312;7.378;2023-05-23T05:46:01;97683.94;;;11.44;100.00
5872;BME280;2962;51.312;7.378;2023-05-23T05:48:26;97684.69;;;11.41;100.00
5872;BME280;2962;51.312;7.378;2023-05-23T05:50:52;97687.00;;;11.39;100.00
5872;BME280;2962;51.312;7.378;2023-05-23T05:53:17;97701.03;;;11.41;100.00
5872;BME280;2962;51.312;7.378;2023-05-23T05:55:42;97698.75;;;11.43;100.00
5872;BME280;2962;51.312;7.378;2023-05-23T05:58:08;97693.28;;;11.43;100.00
5872;BME280;2962;51.312;7.378;2023-05-23T06:00:33;97695.53;;;11.37;100.00
5872;BME280;2962;51.312;7.378;2023-05-23T06:03:05;97704.94;;;11.40;100.00
5872;BME280;2962;51.312;7.378;2023-05-23T06:05:31;97706.44;;;11.37;100.00
5872;BME280;2962;51.312;7.378;2023-05-23T06:07:56;97694.63;;;11.30;100.00
5872;BME280;2962;51.312;7.378;2023-05-23T06:10:22;97698.47;;;11.25;100.00
5872;BME280;2962;51.312;7.378;2023-05-23T06:12:48;97690.97;;;11.18;100.00
5872;BME280;2962;51.312;7.378;2023-05-23T06:15:14;97700.53;;;11.32;100.00
5872;BME280;2962;51.312;7.378;2023-05-23T06:17:40;97714.16;;;11.32;100.00
5872;BME280;2962;51.312;7.378;2023-05-23T06:20:06;97692.06;;;11.14;100.00
5872;BME280;2962;51.312;7.378;2023-05-23T06:22:32;97713.16;;;11.17;100.00
5872;BME280;2962;51.312;7.378;2023-05-23T06:24:57;97704.31;;;11.23;100.00
5872;BME280;2962;51.312;7.378;2023-05-23T06:27:22;97700.84;;;11.27;100.00
5872;BME280;2962;51.312;7.378;2023-05-23T06:29:48;97700.09;;;11.30;100.00
5872;BME280;2962;51.312;7.378;2023-05-23T06:32:13;97713.13;;;11.40;100.00
5872;BME280;2962;51.312;7.378;2023-05-23T06:34:38;97703.72;;;11.37;100.00
5872;BME280;2962;51.312;7.378;2023-05-23T06:37:04;97703.31;;;11.35;100.00
5872;BME280;2962;51.312;7.378;2023-05-23T06:39:29;97706.81;;;11.36;100.00
5872;BME280;2962;51.312;7.378;2023-05-23T06:41:54;97723.75;;;11.48;100.00
5872;BME280;2962;51.312;7.378;2023-05-23T06:44:20;97714.28;;;11.39;100.00
5872;BME280;2962;51.312;7.378;2023-05-23T06:46:45;97725.66;;;11.44;100.00
5872;BME280;2962;51.312;7.378;2023-05-23T06:49:11;97726.03;;;11.43;100.00
5872;BME280;2962;51.312;7.378;2023-05-23T06:51:37;97717.41;;;11.41;100.00
5872;BME280;2962;51.312;7.378;2023-05-23T06:54:02;97722.81;;;11.37;100.00
5872;BME280;2962;51.312;7.378;2023-05-23T06:56:28;97728.47;;;11.25;100.00
5872;BME280;2962;51.312;7.378;2023-05-23T06:58:53;97736.59;;;11.21;100.00
5872;BME280;2962;51.312;7.378;2023-05-23T07:01:18;97739.56;;;11.13;100.00
5872;BME280;2962;51.312;7.378;2023-05-23T07:03:43;97732.00;;;11.03;100.00
5872;BME280;2962;51.312;7.378;2023-05-23T07:06:10;97737.69;;;10.94;100.00
5872;BME280;2962;51.312;7.378;2023-05-23T07:08:35;97740.44;;;10.94;100.00
5872;BME280;2962;51.312;7.378;2023-05-23T07:11:01;97733.53;;;10.77;100.00
5872;BME280;2962;51.312;7.378;2023-05-23T07:13:26;97735.88;;;10.79;100.00
5872;BME280;2962;51.312;7.378;2023-05-23T07:15:51;97746.91;;;10.86;100.00
5872;BME280;2962;51.312;7.378;2023-05-23T07:18:17;97735.66;;;10.68;100.00
5872;BME280;2962;51.312;7.378;2023-05-23T07:20:42;97758.53;;;10.83;100.00
5872;BME280;2962;51.312;7.378;2023-05-23T07:23:07;97747.00;;;10.70;100.00
5872;BME280;2962;51.312;7.378;2023-05-23T07:25:33;97756.81;;;10.74;100.00
5872;BME280;2962;51.312;7.378;2023-05-23T07:27:58;97759.31;;;10.83;100.00
5872;BME280;2962;51.312;7.378;2023-05-23T07:30:23;97767.88;;;10.82;100.00
5872;BME280;2962;51.312;7.378;2023-05-23T07:32:49;97765.53;;;10.84;100.00
5872;BME280;2962;51.312;7.378;2023-05-23T07:35:16;97755.31;;;10.77;100.00
5872;BME280;2962;51.312;7.378;2023-05-23T07:37:41;97769.50;;;10.86;100.00
5872;BME280;2962;51.312;7.378;2023-05-23T07:40:07;97760.97;;;10.88;100.00
5872;BME280;2962;51.312;7.378;2023-05-23T07:42:35;97774.78;;;10.98;100.00
5872;BME280;2962;51.312;7.378;2023-05-23T07:45:04;97775.63;;;11.03;100.00
5872;BME280;2962;51.312;7.378;2023-05-23T07:47:30;97775.72;;;10.87;100.00
5872;BME280;2962;51.312;7.378;2023-05-23T07:49:55;97782.03;;;10.91;100.00
5872;BME280;2962;51.312;7.378;2023-05-23T07:52:20;97790.66;;;10.93;100.00
5872;BME280;2962;51.312;7.378;2023-05-23T07:54:46;97788.22;;;10.88;100.00
5872;BME280;2962;51.312;7.378;2023-05-23T07:57:11;97785.91;;;10.90;100.00
5872;BME280;2962;51.312;7.378;2023-05-23T07:59:37;97789.09;;;10.92;100.00
5872;BME280;2962;51.312;7.378;2023-05-23T08:02:05;97790.59;;;10.89;100.00
5872;BME280;2962;51.312;7.378;2023-05-23T08:04:31;97775.19;;;10.78;100.00
5872;BME280;2962;51.312;7.378;2023-05-23T08:06:58;97789.81;;;10.89;100.00
5872;BME280;2962;51.312;7.378;2023-05-23T08:09:24;97793.78;;;10.95;100.00
5872;BME280;2962;51.312;7.378;2023-05-23T08:11:49;97792.16;;;10.90;100.00
5872;BME280;2962;51.312;7.378;2023-05-23T08:14:15;97789.44;;;10.90;100.00
5872;BME280;2962;51.312;7.378;2023-05-23T08:16:40;97788.38;;;10.75;100.00
5872;BME280;2962;51.312;7.378;2023-05-23T08:19:06;97807.66;;;10.86;100.00
5872;BME280;2962;51.312;7.378;2023-05-23T08:21:31;97801.31;;;11.02;100.00
5872;BME280;2962;51.312;7.378;2023-05-23T08:23:57;97806.19;;;11.12;100.00
5872;BME280;2962;51.312;7.378;2023-05-23T08:26:22;97809.94;;;11.27;100.00
5872;BME280;2962;51.312;7.378;2023-05-23T08:28:47;97811.22;;;11.33;100.00
5872;BME280;2962;51.312;7.378;2023-05-23T08:31:13;97810.03;;;11.34;100.00
5872;BME280;2962;51.312;7.378;2023-05-23T08:33:38;97808.34;;;11.25;100.00
5872;BME280;2962;51.312;7.378;2023-05-23T08:36:04;97804.19;;;11.32;100.00
5872;BME280;2962;51.312;7.378;2023-05-23T08:38:29;97797.63;;;11.36;100.00
5872;BME280;2962;51.312;7.378;2023-05-23T08:40:59;97806.25;;;11.38;100.00
5872;BME280;2962;51.312;7.378;2023-05-23T08:43:25;97812.63;;;11.46;100.00
5872;BME280;2962;51.312;7.378;2023-05-23T08:45:51;97810.53;;;11.39;100.00
5872;BME280;2962;51.312;7.378;2023-05-23T08:48:18;97799.03;;;11.27;100.00
5872;BME280;2962;51.312;7.378;2023-05-23T08:50:47;97820.88;;;11.27;100.00
5872;BME280;2962;51.312;7.378;2023-05-23T08:53:16;97824.66;;;11.22;100.00
5872;BME280;2962;51.312;7.378;2023-05-23T08:55:48;97820.59;;;11.12;100.00
5872;BME280;2962;51.312;7.378;2023-05-23T08:58:16;97825.28;;;11.12;100.00
5872;BME280;2962;51.312;7.378;2023-05-23T09:00:45;97827.88;;;11.28;100.00
5872;BME280;2962;51.312;7.378;2023-05-23T09:03:11;97834.00;;;11.21;100.00
5872;BME280;2962;51.312;7.378;2023-05-23T09:05:37;97826.19;;;11.19;100.00
5872;BME280;2962;51.312;7.378;2023-05-23T09:08:02;97830.47;;;11.20;100.00
5872;BME280;2962;51.312;7.378;2023-05-23T09:10:28;97835.34;;;11.31;100.00
5872;BME280;2962;51.312;7.378;2023-05-23T09:12:54;97838.28;;;11.22;100.00
5872;BME280;2962;51.312;7.378;2023-05-23T09:15:19;97834.25;;;11.12;100.00
5872;BME280;2962;51.312;7.378;2023-05-23T09:17:46;97831.31;;;11.02;100.00
5872;BME280;2962;51.312;7.378;2023-05-23T09:20:13;97839.94;;;11.04;100.00
5872;BME280;2962;51.312;7.378;2023-05-23T09:22:39;97840.94;;;10.76;100.00
5872;BME280;2962;51.312;7.378;2023-05-23T09:25:06;97851.66;;;10.85;100.00
5872;BME280;2962;51.312;7.378;2023-05-23T09:27:31;97840.00;;;10.68;100.00
5872;BME280;2962;51.312;7.378;2023-05-23T09:30:04;97856.00;;;10.70;100.00
5872;BME280;2962;51.312;7.378;2023-05-23T09:32:29;97850.34;;;10.79;100.00
5872;BME280;2962;51.312;7.378;2023-05-23T09:35:02;97857.25;;;10.72;100.00
5872;BME280;2962;51.312;7.378;2023-05-23T09:37:39;97846.34;;;10.72;100.00
5872;BME280;2962;51.312;7.378;2023-05-23T09:40:09;97859.59;;;10.74;100.00
5872;BME280;2962;51.312;7.378;2023-05-23T09:42:36;97865.75;;;10.51;100.00
5872;BME280;2962;51.312;7.378;2023-05-23T09:45:05;97864.69;;;10.56;100.00
5872;BME280;2962;51.312;7.378;2023-05-23T09:47:31;97855.06;;;10.43;100.00
5872;BME280;2962;51.312;7.378;2023-05-23T09:49:56;97862.63;;;10.49;100.00
5872;BME280;2962;51.312;7.378;2023-05-23T09:52:21;97859.16;;;10.52;100.00
5872;BME280;2962;51.312;7.378;2023-05-23T09:54:47;97866.28;;;10.57;100.00
5872;BME280;2962;51.312;7.378;2023-05-23T09:57:14;97859.59;;;10.55;100.00
5872;BME280;2962;51.312;7.378;2023-05-23T09:59:41;97862.97;;;10.67;100.00
5872;BME280;2962;51.312;7.378;2023-05-23T10:02:10;97855.94;;;10.47;100.00
5872;BME280;2962;51.312;7.378;2023-05-23T10:04:37;97864.41;;;10.61;100.00
5872;BME280;2962;51.312;7.378;2023-05-23T10:07:09;97868.84;;;10.69;100.00
5872;BME280;2962;51.312;7.378;2023-05-23T10:09:39;97872.66;;;10.65;100.00
5872;BME280;2962;51.312;7.378;2023-05-23T10:14:55;97850.34;;;10.40;100.00
5872;BME280;2962;51.312;7.378;2023-05-23T10:17:30;97868.63;;;10.39;100.00
5872;BME280;2962;51.312;7.378;2023-05-23T10:20:00;97886.75;;;10.51;100.00
5872;BME280;2962;51.312;7.378;2023-05-23T10:22:28;97876.31;;;10.72;100.00
5872;BME280;2962;51.312;7.378;2023-05-23T10:24:54;97872.44;;;10.73;100.00
5872;BME280;2962;51.312;7.378;2023-05-23T10:27:20;97876.88;;;10.82;100.00
5872;BME280;2962;51.312;7.378;2023-05-23T10:29:45;97878.38;;;10.79;100.00
5872;BME280;2962;51.312;7.378;2023-05-23T10:32:12;97880.31;;;10.98;100.00
5872;BME280;2962;51.312;7.378;2023-05-23T10:37:34;97894.47;;;11.04;100.00
5872;BME280;2962;51.312;7.378;2023-05-23T10:40:15;97887.00;;;11.00;100.00
5872;BME280;2962;51.312;7.378;2023-05-23T10:43:06;97900.94;;;10.95;100.00
5872;BME280;2962;51.312;7.378;2023-05-23T10:45:41;97888.00;;;10.73;100.00
5872;BME280;2962;51.312;7.378;2023-05-23T10:48:32;97898.38;;;10.67;100.00
5872;BME280;2962;51.312;7.378;2023-05-23T10:51:06;97896.59;;;10.56;100.00
5872;BME280;2962;51.312;7.378;2023-05-23T10:53:45;97908.78;;;10.62;100.00
5872;BME280;2962;51.312;7.378;2023-05-23T10:56:18;97908.09;;;10.49;100.00
5872;BME280;2962;51.312;7.378;2023-05-23T10:58:52;97911.13;;;10.44;100.00
5872;BME280;2962;51.312;7.378;2023-05-23T11:01:18;97910.09;;;10.33;100.00
5872;BME280;2962;51.312;7.378;2023-05-23T11:06:32;97923.22;;;10.27;100.00
5872;BME280;2962;51.312;7.378;2023-05-23T11:09:17;97935.03;;;10.03;100.00
5872;BME280;2962;51.312;7.378;2023-05-23T11:12:02;97929.78;;;9.94;100.00
5872;BME280;2962;51.312;7.378;2023-05-23T11:17:15;97931.16;;;9.41;100.00
5872;BME280;2962;51.312;7.378;2023-05-23T11:20:04;97947.47;;;9.41;100.00
5872;BME280;2962;51.312;7.378;2023-05-23T11:22:31;97933.34;;;9.35;100.00
5872;BME280;2962;51.312;7.378;2023-05-23T11:24:58;97939.13;;;9.34;100.00
5872;BME280;2962;51.312;7.378;2023-05-23T11:27:30;97948.88;;;9.35;100.00
5872;BME280;2962;51.312;7.378;2023-05-23T11:30:01;97945.41;;;9.50;100.00
5872;BME280;2962;51.312;7.378;2023-05-23T11:32:27;97947.53;;;9.72;100.00
5872;BME280;2962;51.312;7.378;2023-05-23T11:34:54;97946.56;;;9.96;100.00
5872;BME280;2962;51.312;7.378;2023-05-23T11:37:19;97946.72;;;10.19;100.00
5872;BME280;2962;51.312;7.378;2023-05-23T11:39:45;97946.66;;;10.67;100.00
5872;BME280;2962;51.312;7.378;2023-05-23T11:42:10;97935.13;;;11.32;100.00
5872;BME280;2962;51.312;7.378;2023-05-23T11:44:36;97925.56;;;11.64;100.00
5872;BME280;2962;51.312;7.378;2023-05-23T11:47:04;97926.44;;;11.91;100.00
5872;BME280;2962;51.312;7.378;2023-05-23T11:49:33;97917.94;;;11.73;100.00
5872;BME280;2962;51.312;7.378;2023-05-23T11:52:00;97909.25;;;11.68;100.00
5872;BME280;2962;51.312;7.378;2023-05-23T11:54:25;97911.88;;;11.84;100.00
5872;BME280;2962;51.312;7.378;2023-05-23T11:56:51;97908.56;;;11.94;100.00
5872;BME280;2962;51.312;7.378;2023-05-23T11:59:17;97921.38;;;11.70;100.00
5872;BME280;2962;51.312;7.378;2023-05-23T12:01:42;97920.97;;;11.68;100.00
5872;BME280;2962;51.312;7.378;2023-05-23T12:04:09;97912.91;;;11.33;100.00
5872;BME280;2962;51.312;7.378;2023-05-23T12:06:38;97935.38;;;11.46;100.00
5872;BME280;2962;51.312;7.378;2023-05-23T12:09:05;97931.19;;;11.52;100.00
5872;BME280;2962;51.312;7.378;2023-05-23T12:11:32;97931.13;;;11.48;100.00
5872;BME280;2962;51.312;7.378;2023-05-23T12:13:57;97946.31;;;11.46;100.00
5872;BME280;2962;51.312;7.378;2023-05-23T12:16:27;97941.53;;;11.62;100.00
5872;BME280;2962;51.312;7.378;2023-05-23T12:18:52;97941.31;;;11.52;100.00
5872;BME280;2962;51.312;7.378;2023-05-23T12:21:18;97945.16;;;11.28;100.00
5872;BME280;2962;51.312;7.378;2023-05-23T12:23:43;97945.03;;;11.01;100.00
5872;BME280;2962;51.312;7.378;2023-05-23T12:26:08;97944.88;;;10.94;100.00
5872;BME280;2962;51.312;7.378;2023-05-23T12:28:38;97942.31;;;10.82;100.00
5872;BME280;2962;51.312;7.378;2023-05-23T12:31:15;97945.91;;;11.05;100.00
5872;BME280;2962;51.312;7.378;2023-05-23T12:33:42;97944.53;;;11.34;100.00
5872;BME280;2962;51.312;7.378;2023-05-23T12:36:09;97944.06;;;11.52;100.00
5872;BME280;2962;51.312;7.378;2023-05-23T12:38:35;97939.94;;;12.04;100.00
5872;BME280;2962;51.312;7.378;2023-05-23T12:41:14;97934.53;;;12.07;100.00
5872;BME280;2962;51.312;7.378;2023-05-23T12:43:47;97937.16;;;12.53;100.00
5872;BME280;2962;51.312;7.378;2023-05-23T12:46:13;97939.25;;;12.63;100.00
5872;BME280;2962;51.312;7.378;2023-05-23T12:48:39;97939.75;;;12.42;100.00
5872;BME280;2962;51.312;7.378;2023-05-23T12:51:05;97930.09;;;12.52;100.00
5872;BME280;2962;51.312;7.378;2023-05-23T12:53:30;97943.97;;;12.66;100.00
5872;BME280;2962;51.312;7.378;2023-05-23T12:55:55;97931.53;;;13.03;100.00
5872;BME280;2962;51.312;7.378;2023-05-23T12:58:21;97933.13;;;13.34;100.00
5872;BME280;2962;51.312;7.378;2023-05-23T13:00:46;97922.50;;;13.66;100.00
5872;BME280;2962;51.312;7.378;2023-05-23T13:03:11;97921.72;;;14.69;100.00
5872;BME280;2962;51.312;7.378;2023-05-23T13:05:37;97914.78;;;14.89;100.00
5872;BME280;2962;51.312;7.378;2023-05-23T13:08:03;97912.69;;;13.61;100.00
5872;BME280;2962;51.312;7.378;2023-05-23T13:10:28;97917.63;;;13.49;100.00
5872;BME280;2962;51.312;7.378;2023-05-23T13:12:53;97914.06;;;14.37;100.00
5872;BME280;2962;51.312;7.378;2023-05-23T13:15:19;97914.53;;;15.33;100.00
5872;BME280;2962;51.312;7.378;2023-05-23T13:17:44;97913.41;;;16.52;100.00
5872;BME280;2962;51.312;7.378;2023-05-23T13:20:11;97916.38;;;17.26;100.00
5872;BME280;2962;51.312;7.378;2023-05-23T13:22:38;97914.16;;;18.18;100.00
5872;BME280;2962;51.312;7.378;2023-05-23T13:25:04;97920.91;;;19.30;100.00